createdAt,value
2018-08-30T00:00:59.268Z,6.40
2018-08-30T00:01:59.220Z,7.50
2018-08-30T00:02:59.232Z,8.30
2018-08-30T00:03:59.201Z,7.40
2018-08-30T00:04:59.180Z,7.00
2018-08-30T00:05:59.212Z,6.90
2018-08-30T00:06:59.183Z,7.20
2018-08-30T00:07:59.183Z,6.50
2018-08-30T00:08:59.143Z,7.90
2018-08-30T00:09:59.143Z,7.40
2018-08-30T00:10:59.129Z,7.70
2018-08-30T00:11:59.225Z,6.70
2018-08-30T00:12:59.108Z,7.40
2018-08-30T00:13:59.124Z,6.60
2018-08-30T00:14:59.093Z,6.60
2018-08-30T00:15:59.088Z,8.10
2018-08-30T00:16:59.111Z,6.70
2018-08-30T00:17:59.048Z,9.40
2018-08-30T00:18:59.050Z,8.30
2018-08-30T00:19:59.037Z,7.10
2018-08-30T00:20:59.024Z,7.40
2018-08-30T00:21:59.041Z,7.30
2018-08-30T00:22:59.052Z,8.20
2018-08-30T00:23:58.972Z,7.50
2018-08-30T00:24:58.961Z,7.10
2018-08-30T00:25:58.967Z,7.60
2018-08-30T00:26:58.941Z,8.00
2018-08-30T00:28:03.863Z,8.20
2018-08-30T00:28:59.000Z,10.00
2018-08-30T00:29:58.932Z,7.60
2018-08-30T00:30:58.896Z,8.00
2018-08-30T00:31:58.913Z,9.10
2018-08-30T00:32:58.874Z,9.20
2018-08-30T00:33:58.901Z,7.30
2018-08-30T00:34:58.914Z,8.30
2018-08-30T00:35:58.874Z,8.80
2018-08-30T00:36:58.862Z,10.90
2018-08-30T00:37:58.850Z,9.60
2018-08-30T00:38:58.820Z,10.30
2018-08-30T00:39:58.807Z,10.70
2018-08-30T00:40:58.861Z,8.80
2018-08-30T00:41:58.796Z,12.10
2018-08-30T00:42:58.788Z,12.00
2018-08-30T00:43:58.764Z,11.30
2018-08-30T00:44:58.746Z,11.00
2018-08-30T00:45:58.745Z,12.30
2018-08-30T00:46:58.791Z,12.00
2018-08-30T00:47:58.720Z,11.50
2018-08-30T00:48:58.715Z,12.60
2018-08-30T00:49:58.746Z,16.20
2018-08-30T00:50:58.679Z,15.00
2018-08-30T00:51:58.678Z,14.40
2018-08-30T00:52:58.708Z,15.20
2018-08-30T00:53:58.656Z,16.80
2018-08-30T00:54:58.678Z,15.70
2018-08-30T00:55:58.651Z,15.10
2018-08-30T00:56:58.629Z,14.90
2018-08-30T00:57:58.610Z,16.70
2018-08-30T00:58:58.651Z,16.70
2018-08-30T00:59:58.577Z,15.50
2018-08-30T01:00:58.589Z,18.20
2018-08-30T01:01:58.589Z,17.00
2018-08-30T01:02:58.580Z,16.80
2018-08-30T01:03:58.612Z,18.70
2018-08-30T01:04:58.589Z,17.70
2018-08-30T01:05:58.517Z,17.60
2018-08-30T01:06:58.520Z,19.80
2018-08-30T01:07:58.491Z,18.00
2018-08-30T01:08:58.512Z,19.20
2018-08-30T01:09:58.492Z,19.00
2018-08-30T01:10:58.518Z,16.60
2018-08-30T01:11:58.452Z,19.80
2018-08-30T01:12:58.457Z,16.30
2018-08-30T01:13:58.438Z,19.20
2018-08-30T01:14:58.426Z,17.90
2018-08-30T01:15:58.433Z,21.10
2018-08-30T01:16:58.459Z,18.00
2018-08-30T01:17:58.401Z,20.00
2018-08-30T01:18:58.398Z,20.10
2018-08-30T01:19:58.357Z,19.80
2018-08-30T01:20:58.362Z,19.40
2018-08-30T01:21:58.352Z,20.20
2018-08-30T01:22:58.388Z,17.80
2018-08-30T01:23:58.336Z,18.40
2018-08-30T01:24:58.335Z,19.30
2018-08-30T01:25:58.326Z,17.60
2018-08-30T01:26:58.294Z,17.60
2018-08-30T01:27:58.282Z,18.30
2018-08-30T01:29:03.179Z,20.40
2018-08-30T01:29:58.243Z,17.50
2018-08-30T01:30:58.252Z,20.50
2018-08-30T01:31:58.247Z,19.30
2018-08-30T01:32:58.212Z,20.00
2018-08-30T01:33:58.212Z,19.80
2018-08-30T01:34:58.251Z,18.00
2018-08-30T01:35:58.198Z,18.00
2018-08-30T01:36:58.172Z,22.20
2018-08-30T01:37:58.187Z,18.00
2018-08-30T01:38:58.207Z,20.10
2018-08-30T01:39:58.140Z,17.50
2018-08-30T01:40:58.232Z,16.80
2018-08-30T01:41:58.119Z,18.10
2018-08-30T01:42:58.122Z,20.40
2018-08-30T01:43:58.093Z,20.70
2018-08-30T01:44:58.190Z,18.90
2018-08-30T01:45:58.095Z,20.20
2018-08-30T01:46:58.109Z,19.90
2018-08-30T01:47:58.056Z,21.80
2018-08-30T01:48:58.095Z,22.60
2018-08-30T01:49:58.058Z,19.80
2018-08-30T01:50:58.009Z,23.30
2018-08-30T01:51:58.030Z,22.60
2018-08-30T01:52:58.071Z,21.20
2018-08-30T01:53:58.022Z,20.60
2018-08-30T01:54:57.988Z,22.40
2018-08-30T01:55:57.975Z,21.30
2018-08-30T01:56:57.955Z,22.10
2018-08-30T01:57:58.021Z,23.40
2018-08-30T01:58:57.940Z,22.20
2018-08-30T01:59:57.941Z,23.10
2018-08-30T02:00:57.934Z,24.80
2018-08-30T02:01:57.900Z,21.80
2018-08-30T02:02:57.891Z,25.20
2018-08-30T02:03:57.915Z,21.80
2018-08-30T02:04:57.908Z,21.10
2018-08-30T02:05:57.872Z,22.50
2018-08-30T02:06:57.884Z,25.60
2018-08-30T02:07:57.861Z,19.40
2018-08-30T02:08:57.822Z,22.60
2018-08-30T02:09:58.240Z,26.30
2018-08-30T02:10:57.807Z,23.20
2018-08-30T02:11:57.809Z,25.20
2018-08-30T02:12:57.793Z,24.60
2018-08-30T02:13:57.816Z,25.00
2018-08-30T02:14:57.761Z,26.60
2018-08-30T02:15:57.840Z,24.10
2018-08-30T02:16:57.765Z,26.40
2018-08-30T02:17:57.753Z,27.50
2018-08-30T02:18:57.717Z,25.40
2018-08-30T02:19:57.733Z,24.20
2018-08-30T02:20:57.711Z,24.80
2018-08-30T02:21:57.717Z,26.70
2018-08-30T02:22:57.686Z,27.50
2018-08-30T02:23:57.667Z,25.60
2018-08-30T02:24:57.680Z,24.70
2018-08-30T02:25:57.652Z,23.90
2018-08-30T02:26:57.644Z,27.70
2018-08-30T02:27:57.682Z,27.50
2018-08-30T02:28:57.626Z,27.30
2018-08-30T02:30:02.493Z,27.50
2018-08-30T02:30:57.600Z,26.10
2018-08-30T02:31:57.578Z,27.00
2018-08-30T02:32:57.569Z,27.50
2018-08-30T02:33:57.615Z,26.20
2018-08-30T02:34:57.586Z,25.40
2018-08-30T02:35:57.535Z,28.00
2018-08-30T02:36:57.533Z,28.20
2018-08-30T02:37:57.553Z,29.40
2018-08-30T02:38:57.559Z,28.10
2018-08-30T02:39:57.538Z,31.00
2018-08-30T02:40:57.501Z,29.50
2018-08-30T02:41:57.516Z,29.80
2018-08-30T02:42:57.549Z,27.00
2018-08-30T02:43:57.452Z,26.80
2018-08-30T02:44:57.456Z,29.30
2018-08-30T02:45:57.463Z,24.60
2018-08-30T02:46:57.439Z,27.00
2018-08-30T02:47:57.411Z,30.80
2018-08-30T02:48:57.481Z,29.10
2018-08-30T02:49:57.384Z,29.60
2018-08-30T02:50:57.383Z,29.90
2018-08-30T02:51:57.415Z,28.80
2018-08-30T02:52:57.397Z,28.20
2018-08-30T02:53:57.353Z,28.50
2018-08-30T02:54:57.362Z,29.30
2018-08-30T02:55:57.349Z,30.40
2018-08-30T02:56:57.346Z,29.20
2018-08-30T02:57:57.347Z,30.60
2018-08-30T02:58:57.412Z,31.60
2018-08-30T02:59:57.299Z,34.40
2018-08-30T03:00:57.264Z,30.90
2018-08-30T03:01:57.273Z,32.80
2018-08-30T03:02:57.267Z,31.50
2018-08-30T03:03:57.308Z,31.50
2018-08-30T03:04:57.235Z,31.20
2018-08-30T03:05:57.222Z,31.20
2018-08-30T03:06:57.220Z,30.00
2018-08-30T03:07:57.210Z,29.10
2018-08-30T03:08:57.189Z,31.00
2018-08-30T03:09:57.259Z,29.80
2018-08-30T03:10:57.188Z,32.90
2018-08-30T03:11:57.155Z,31.70
2018-08-30T03:12:57.134Z,32.70
2018-08-30T03:13:57.132Z,32.20
2018-08-30T03:14:57.145Z,32.00
2018-08-30T03:15:57.174Z,32.50
2018-08-30T03:16:57.115Z,31.30
2018-08-30T03:17:57.091Z,29.30
2018-08-30T03:18:57.090Z,31.40
2018-08-30T03:19:57.062Z,32.50
2018-08-30T03:20:57.112Z,34.70
2018-08-30T03:21:57.063Z,29.70
2018-08-30T03:22:57.052Z,31.80
2018-08-30T03:23:57.047Z,28.30
2018-08-30T03:24:57.029Z,29.80
2018-08-30T03:25:57.014Z,32.00
2018-08-30T03:26:57.039Z,33.60
2018-08-30T03:27:56.976Z,30.80
2018-08-30T03:28:56.977Z,29.30
2018-08-30T03:29:56.965Z,30.00
2018-08-30T03:30:57.122Z,31.50
2018-08-30T03:32:01.831Z,29.80
2018-08-30T03:32:56.966Z,30.30
2018-08-30T03:33:56.976Z,30.00
2018-08-30T03:34:56.909Z,29.90
2018-08-30T03:35:56.904Z,28.80
2018-08-30T03:36:56.895Z,31.00
2018-08-30T03:37:56.904Z,29.60
2018-08-30T03:38:56.899Z,27.10
2018-08-30T03:39:56.921Z,29.30
2018-08-30T03:40:56.836Z,27.20
2018-08-30T03:41:56.913Z,29.20
2018-08-30T03:42:56.834Z,30.60
2018-08-30T03:43:56.935Z,31.00
2018-08-30T03:44:56.858Z,28.90
2018-08-30T03:45:56.823Z,33.80
2018-08-30T03:46:56.824Z,30.20
2018-08-30T03:47:56.769Z,27.90
2018-08-30T03:48:56.751Z,29.50
2018-08-30T03:49:56.752Z,30.10
2018-08-30T03:50:56.792Z,29.60
2018-08-30T03:51:56.742Z,31.50
2018-08-30T03:52:56.715Z,29.40
2018-08-30T03:53:56.723Z,30.80
2018-08-30T03:54:56.709Z,28.40
2018-08-30T03:55:56.691Z,27.60
2018-08-30T03:56:56.750Z,29.00
2018-08-30T03:57:56.671Z,27.90
2018-08-30T03:58:56.657Z,27.80
2018-08-30T03:59:56.672Z,28.70
2018-08-30T04:00:56.617Z,28.40
2018-08-30T04:01:56.612Z,28.90
2018-08-30T04:03:01.565Z,31.00
2018-08-30T04:03:56.602Z,32.70
2018-08-30T04:04:56.609Z,30.20
2018-08-30T04:05:56.600Z,27.80
2018-08-30T04:06:56.554Z,28.70
2018-08-30T04:07:56.557Z,26.40
2018-08-30T04:08:56.586Z,27.10
2018-08-30T04:09:56.523Z,28.30
2018-08-30T04:10:56.517Z,28.00
2018-08-30T04:11:56.516Z,30.00
2018-08-30T04:12:56.517Z,25.60
2018-08-30T04:13:56.534Z,26.90
2018-08-30T04:14:56.507Z,27.00
2018-08-30T04:15:56.458Z,28.90
2018-08-30T04:16:56.466Z,25.90
2018-08-30T04:17:56.441Z,31.70
2018-08-30T04:18:56.456Z,29.70
2018-08-30T04:19:56.443Z,27.40
2018-08-30T04:20:56.436Z,25.90
2018-08-30T04:21:56.457Z,26.30
2018-08-30T04:22:56.412Z,27.50
2018-08-30T04:23:56.394Z,29.10
2018-08-30T04:24:56.373Z,24.70
2018-08-30T04:25:56.355Z,25.10
2018-08-30T04:26:56.388Z,23.90
2018-08-30T04:27:56.324Z,25.90
2018-08-30T04:28:56.314Z,27.20
2018-08-30T04:29:56.333Z,25.90
2018-08-30T04:30:56.291Z,26.70
2018-08-30T04:31:56.324Z,27.70
2018-08-30T04:33:01.201Z,27.80
2018-08-30T04:33:56.285Z,28.50
2018-08-30T04:34:56.250Z,26.00
2018-08-30T04:35:56.244Z,26.90
2018-08-30T04:36:56.238Z,26.00
2018-08-30T04:37:56.224Z,27.60
2018-08-30T04:38:56.219Z,28.80
2018-08-30T04:39:56.223Z,26.60
2018-08-30T04:40:56.202Z,28.10
2018-08-30T04:41:56.180Z,27.40
2018-08-30T04:42:56.156Z,28.50
2018-08-30T04:43:56.145Z,26.10
2018-08-30T04:44:56.170Z,25.30
2018-08-30T04:45:56.142Z,28.50
2018-08-30T04:46:56.123Z,28.40
2018-08-30T04:47:56.168Z,29.00
2018-08-30T04:48:56.097Z,27.20
2018-08-30T04:49:56.098Z,26.60
2018-08-30T04:50:56.103Z,26.20
2018-08-30T04:51:56.089Z,26.70
2018-08-30T04:52:56.051Z,28.70
2018-08-30T04:53:56.051Z,28.60
2018-08-30T04:54:56.056Z,25.00
2018-08-30T04:55:56.027Z,28.10
2018-08-30T04:56:56.054Z,25.00
2018-08-30T04:57:56.012Z,27.10
2018-08-30T04:58:56.011Z,27.80
2018-08-30T04:59:56.010Z,27.10
2018-08-30T05:00:55.985Z,28.80
2018-08-30T05:01:55.984Z,29.10
2018-08-30T05:02:55.984Z,29.20
2018-08-30T05:03:55.943Z,28.50
2018-08-30T05:04:55.924Z,25.90
2018-08-30T05:05:55.923Z,25.10
2018-08-30T05:06:55.928Z,27.50
2018-08-30T05:07:55.908Z,26.40
2018-08-30T05:08:55.941Z,27.50
2018-08-30T05:09:55.930Z,28.80
2018-08-30T05:10:55.858Z,26.00
2018-08-30T05:11:55.857Z,28.40
2018-08-30T05:12:55.855Z,26.10
2018-08-30T05:13:55.827Z,24.60
2018-08-30T05:14:55.847Z,27.10
2018-08-30T05:15:55.828Z,24.30
2018-08-30T05:16:55.795Z,24.80
2018-08-30T05:17:55.784Z,25.20
2018-08-30T05:18:55.778Z,24.30
2018-08-30T05:19:55.785Z,24.60
2018-08-30T05:20:55.778Z,24.70
2018-08-30T05:21:55.763Z,24.90
2018-08-30T05:22:55.759Z,26.80
2018-08-30T05:23:55.719Z,26.70
2018-08-30T05:24:55.704Z,25.10
2018-08-30T05:25:55.713Z,28.40
2018-08-30T05:26:55.701Z,26.00
2018-08-30T05:27:55.678Z,29.50
2018-08-30T05:28:55.671Z,25.20
2018-08-30T05:29:55.817Z,27.00
2018-08-30T05:30:55.650Z,25.50
2018-08-30T05:31:55.940Z,27.40
2018-08-30T05:32:55.626Z,25.00
2018-08-30T05:34:00.474Z,27.10
2018-08-30T05:34:55.620Z,27.10
2018-08-30T05:35:55.601Z,26.80
2018-08-30T05:36:55.587Z,26.80
2018-08-30T05:37:55.607Z,29.30
2018-08-30T05:38:55.557Z,24.70
2018-08-30T05:39:55.670Z,26.40
2018-08-30T05:40:55.562Z,26.40
2018-08-30T05:41:55.533Z,30.30
2018-08-30T05:42:55.533Z,27.70
2018-08-30T05:43:55.550Z,26.20
2018-08-30T05:44:55.506Z,27.40
2018-08-30T05:45:55.495Z,25.40
2018-08-30T05:46:55.468Z,27.60
2018-08-30T05:47:55.453Z,27.50
2018-08-30T05:48:55.463Z,24.90
2018-08-30T05:49:55.539Z,26.60
2018-08-30T05:50:55.462Z,27.30
2018-08-30T05:51:55.430Z,25.20
2018-08-30T05:52:55.416Z,24.50
2018-08-30T05:53:55.384Z,27.50
2018-08-30T05:54:55.400Z,27.70
2018-08-30T05:55:55.408Z,27.30
2018-08-30T05:56:55.506Z,27.50
2018-08-30T05:57:55.399Z,25.30
2018-08-30T05:58:55.336Z,26.70
2018-08-30T05:59:55.331Z,25.50
2018-08-30T06:00:55.316Z,24.30
2018-08-30T06:01:55.321Z,23.70
2018-08-30T06:02:55.305Z,24.60
2018-08-30T06:03:55.296Z,26.50
2018-08-30T06:04:55.299Z,25.70
2018-08-30T06:05:55.264Z,23.60
2018-08-30T06:06:55.247Z,26.20
2018-08-30T06:07:55.279Z,25.30
2018-08-30T06:08:55.262Z,25.10
2018-08-30T06:09:55.249Z,24.90
2018-08-30T06:10:55.224Z,26.40
2018-08-30T06:11:55.297Z,26.90
2018-08-30T06:12:55.229Z,25.00
2018-08-30T06:13:55.199Z,24.50
2018-08-30T06:14:55.180Z,23.50
2018-08-30T06:15:55.152Z,25.40
2018-08-30T06:16:55.171Z,26.70
2018-08-30T06:17:55.150Z,22.60
2018-08-30T06:18:55.141Z,23.60
2018-08-30T06:19:55.142Z,24.50
2018-08-30T06:20:55.100Z,22.60
2018-08-30T06:21:55.093Z,27.20
2018-08-30T06:22:55.075Z,24.70
2018-08-30T06:23:55.067Z,24.60
2018-08-30T06:24:55.083Z,22.70
2018-08-30T06:25:55.082Z,22.60
2018-08-30T06:26:55.156Z,23.80
2018-08-30T06:27:55.008Z,20.30
2018-08-30T06:28:55.033Z,23.50
2018-08-30T06:29:55.015Z,22.20
2018-08-30T06:30:55.024Z,22.90
2018-08-30T06:31:54.975Z,23.80
2018-08-30T06:32:55.027Z,19.80
2018-08-30T06:33:54.987Z,20.70
2018-08-30T06:35:00.866Z,22.30
2018-08-30T06:35:54.930Z,23.20
2018-08-30T06:36:54.966Z,23.10
2018-08-30T06:37:54.945Z,21.70
2018-08-30T06:38:54.892Z,21.90
2018-08-30T06:39:54.962Z,22.10
2018-08-30T06:40:55.247Z,21.90
2018-08-30T06:41:54.922Z,21.70
2018-08-30T06:42:55.197Z,21.20
2018-08-30T06:43:54.867Z,22.70
2018-08-30T06:44:54.945Z,23.70
2018-08-30T06:45:54.875Z,19.70
2018-08-30T06:46:54.824Z,22.80
2018-08-30T06:47:54.813Z,17.70
2018-08-30T06:48:54.883Z,21.50
2018-08-30T06:49:54.790Z,23.40
2018-08-30T06:50:54.761Z,20.30
2018-08-30T06:51:54.762Z,18.00
2018-08-30T06:52:54.773Z,21.70
2018-08-30T06:53:54.777Z,19.50
2018-08-30T06:54:54.742Z,18.20
2018-08-30T06:55:54.723Z,20.00
2018-08-30T06:56:55.147Z,21.60
2018-08-30T06:57:54.682Z,19.20
2018-08-30T06:58:54.832Z,18.00
2018-08-30T06:59:54.699Z,20.00
2018-08-30T07:00:54.788Z,19.50
2018-08-30T07:01:54.650Z,22.80
2018-08-30T07:02:54.623Z,22.10
2018-08-30T07:03:54.632Z,20.50
2018-08-30T07:04:54.611Z,19.40
2018-08-30T07:05:55.451Z,18.00
2018-08-30T07:06:54.646Z,20.40
2018-08-30T07:07:54.600Z,20.00
2018-08-30T07:08:54.565Z,18.70
2018-08-30T07:09:54.579Z,18.70
2018-08-30T07:10:54.554Z,22.80
2018-08-30T07:11:54.531Z,19.00
2018-08-30T07:12:54.550Z,19.20
2018-08-30T07:13:54.555Z,18.50
2018-08-30T07:14:54.552Z,18.90
2018-08-30T07:15:54.516Z,18.20
2018-08-30T07:16:54.471Z,19.40
2018-08-30T07:17:54.468Z,18.90
2018-08-30T07:18:54.497Z,19.20
2018-08-30T07:19:54.513Z,20.90
2018-08-30T07:20:54.450Z,20.00
2018-08-30T07:21:56.607Z,18.50
2018-08-30T07:22:54.445Z,20.70
2018-08-30T07:23:57.177Z,21.40
2018-08-30T07:24:54.675Z,21.80
2018-08-30T07:25:54.384Z,19.80
2018-08-30T07:26:54.381Z,20.10
2018-08-30T07:27:54.368Z,20.10
2018-08-30T07:28:54.401Z,20.90
2018-08-30T07:29:54.406Z,19.90
2018-08-30T07:30:54.486Z,18.70
2018-08-30T07:31:54.636Z,21.10
2018-08-30T07:32:54.314Z,20.60
2018-08-30T07:33:56.832Z,19.60
2018-08-30T07:34:54.392Z,20.60
2018-08-30T07:35:59.199Z,21.90
2018-08-30T07:36:54.280Z,22.90
2018-08-30T07:37:54.262Z,21.60
2018-08-30T07:38:54.259Z,23.50
2018-08-30T07:39:54.258Z,23.90
2018-08-30T07:40:54.225Z,21.90
2018-08-30T07:41:54.210Z,23.80
2018-08-30T07:42:54.231Z,22.00
2018-08-30T07:43:54.180Z,21.40
2018-08-30T07:44:54.191Z,20.80
2018-08-30T07:45:54.162Z,22.90
2018-08-30T07:46:54.185Z,21.70
2018-08-30T07:47:54.155Z,20.60
2018-08-30T07:48:54.162Z,23.00
2018-08-30T07:49:54.141Z,20.70
2018-08-30T07:50:54.181Z,22.70
2018-08-30T07:51:54.125Z,23.20
2018-08-30T07:52:54.189Z,24.50
2018-08-30T07:53:54.064Z,21.90
2018-08-30T07:54:54.093Z,21.30
2018-08-30T07:55:54.048Z,22.50
2018-08-30T07:56:54.171Z,22.70
2018-08-30T07:57:54.040Z,19.90
2018-08-30T07:58:54.012Z,23.60
2018-08-30T07:59:54.589Z,22.00
2018-08-30T08:00:54.052Z,21.20
2018-08-30T08:01:54.003Z,21.80
2018-08-30T08:02:53.967Z,20.40
2018-08-30T08:03:54.018Z,21.50
2018-08-30T08:04:53.957Z,25.10
2018-08-30T08:05:53.970Z,20.30
2018-08-30T08:06:53.950Z,22.20
2018-08-30T08:07:53.909Z,20.80
2018-08-30T08:08:53.918Z,20.00
2018-08-30T08:09:53.921Z,21.90
2018-08-30T08:10:53.954Z,19.10
2018-08-30T08:11:53.928Z,19.80
2018-08-30T08:12:53.903Z,22.50
2018-08-30T08:13:53.850Z,19.40
2018-08-30T08:14:53.854Z,19.80
2018-08-30T08:15:53.840Z,18.30
2018-08-30T08:16:53.839Z,20.60
2018-08-30T08:17:53.827Z,18.30
2018-08-30T08:18:53.828Z,28.30
2018-08-30T08:19:53.831Z,18.80
2018-08-30T08:20:53.765Z,19.90
2018-08-30T08:21:53.757Z,20.20
2018-08-30T08:22:53.754Z,23.70
2018-08-30T08:23:53.745Z,19.70
2018-08-30T08:24:53.769Z,23.10
2018-08-30T08:25:53.710Z,21.10
2018-08-30T08:26:53.703Z,21.40
2018-08-30T08:27:53.694Z,19.80
2018-08-30T08:28:53.683Z,20.90
2018-08-30T08:29:53.683Z,20.50
2018-08-30T08:30:53.676Z,19.40
2018-08-30T08:31:53.658Z,21.00
2018-08-30T08:32:53.644Z,20.20
2018-08-30T08:33:53.621Z,19.20
2018-08-30T08:34:53.636Z,17.90
2018-08-30T08:35:53.627Z,22.00
2018-08-30T08:36:58.540Z,24.10
2018-08-30T08:37:53.625Z,22.30
2018-08-30T08:38:53.583Z,18.80
2018-08-30T08:39:53.559Z,17.20
2018-08-30T08:40:53.561Z,18.50
2018-08-30T08:41:53.571Z,17.10
2018-08-30T08:42:53.871Z,17.50
2018-08-30T08:43:53.533Z,18.00
2018-08-30T08:44:53.528Z,16.20
2018-08-30T08:45:53.504Z,17.50
2018-08-30T08:46:53.492Z,17.80
2018-08-30T08:47:53.589Z,17.70
2018-08-30T08:48:53.491Z,14.60
2018-08-30T08:49:53.464Z,17.70
2018-08-30T08:50:53.455Z,16.10
2018-08-30T08:51:53.458Z,20.30
2018-08-30T08:52:53.421Z,19.50
2018-08-30T08:53:53.520Z,16.50
2018-08-30T08:54:53.454Z,17.60
2018-08-30T08:55:53.383Z,15.70
2018-08-30T08:56:53.454Z,15.00
2018-08-30T08:57:53.384Z,15.20
2018-08-30T08:58:53.590Z,14.60
2018-08-30T08:59:53.348Z,13.10
2018-08-30T09:00:53.432Z,15.20
2018-08-30T09:01:53.327Z,15.10
2018-08-30T09:02:53.344Z,14.40
2018-08-30T09:03:53.305Z,13.50
2018-08-30T09:04:53.313Z,13.10
2018-08-30T09:05:53.321Z,12.70
2018-08-30T09:06:53.319Z,14.80
2018-08-30T09:07:53.283Z,12.60
2018-08-30T09:08:53.255Z,14.00
2018-08-30T09:09:53.235Z,13.40
2018-08-30T09:10:53.227Z,13.10
2018-08-30T09:11:53.371Z,12.50
2018-08-30T09:12:53.252Z,14.10
2018-08-30T09:13:53.190Z,13.10
2018-08-30T09:14:53.187Z,13.30
2018-08-30T09:15:53.198Z,18.00
2018-08-30T09:16:53.157Z,14.50
2018-08-30T09:17:53.181Z,13.20
2018-08-30T09:18:53.165Z,13.90
2018-08-30T09:19:53.155Z,11.70
2018-08-30T09:20:53.134Z,15.10
2018-08-30T09:21:53.105Z,9.40
2018-08-30T09:22:53.142Z,9.60
2018-08-30T09:23:54.908Z,14.00
2018-08-30T09:24:53.088Z,11.30
2018-08-30T09:25:53.078Z,14.70
2018-08-30T09:26:53.228Z,14.30
2018-08-30T09:27:53.061Z,11.90
2018-08-30T09:28:53.049Z,10.50
2018-08-30T09:29:53.390Z,10.50
2018-08-30T09:30:53.078Z,12.40
2018-08-30T09:31:53.196Z,10.70
2018-08-30T09:32:53.012Z,10.20
2018-08-30T09:33:53.172Z,12.60
2018-08-30T09:34:53.001Z,10.40
2018-08-30T09:35:52.996Z,12.70
2018-08-30T09:36:52.948Z,10.10
2018-08-30T09:37:57.885Z,8.80
2018-08-30T09:38:52.985Z,8.50
2018-08-30T09:39:53.309Z,7.90
2018-08-30T09:40:52.957Z,9.40
2018-08-30T09:41:53.003Z,9.10
2018-08-30T09:42:52.893Z,9.20
2018-08-30T09:43:52.929Z,6.80
2018-08-30T09:44:53.116Z,7.40
2018-08-30T09:45:52.852Z,10.00
2018-08-30T09:46:52.860Z,7.80
2018-08-30T09:47:52.878Z,6.20
2018-08-30T09:48:52.816Z,7.90
2018-08-30T09:49:53.045Z,7.60
2018-08-30T09:50:52.820Z,8.20
2018-08-30T09:51:52.810Z,10.90
2018-08-30T09:52:52.807Z,7.30
2018-08-30T09:53:52.827Z,5.00
2018-08-30T09:54:52.770Z,6.10
2018-08-30T09:55:52.785Z,6.00
2018-08-30T09:56:52.843Z,4.20
2018-08-30T09:57:52.719Z,6.80
2018-08-30T09:58:52.715Z,5.60
2018-08-30T09:59:52.826Z,5.30
2018-08-30T10:00:52.728Z,7.80
2018-08-30T10:01:53.920Z,6.40
2018-08-30T10:02:52.684Z,6.70
2018-08-30T10:03:52.681Z,6.40
2018-08-30T10:04:52.649Z,5.20
2018-08-30T10:05:53.132Z,4.80
2018-08-30T10:06:52.642Z,6.50
2018-08-30T10:07:52.631Z,6.20
2018-08-30T10:08:52.639Z,4.30
2018-08-30T10:09:52.796Z,5.40
2018-08-30T10:10:53.393Z,5.50
2018-08-30T10:11:54.013Z,7.80
2018-08-30T10:12:52.569Z,5.10
2018-08-30T10:13:52.618Z,7.10
2018-08-30T10:14:52.556Z,5.20
2018-08-30T10:15:52.664Z,3.00
2018-08-30T10:16:52.516Z,6.50
2018-08-30T10:17:54.058Z,5.50
2018-08-30T10:20:39.960Z,5.00
2018-08-30T10:21:27.516Z,6.40
2018-08-30T10:22:12.544Z,7.70
2018-08-30T10:23:12.532Z,6.60
2018-08-30T10:24:15.614Z,6.70
2018-08-30T10:25:12.510Z,5.40
2018-08-30T10:26:12.782Z,4.20
2018-08-30T10:27:13.355Z,6.50
2018-08-30T10:28:12.447Z,4.30
2018-08-30T10:29:12.489Z,4.00
2018-08-30T10:30:12.400Z,4.10
2018-08-30T10:31:12.383Z,4.40
2018-08-30T10:32:12.412Z,4.20
2018-08-30T10:33:12.453Z,5.70
2018-08-30T10:34:13.645Z,3.30
2018-08-30T10:35:12.383Z,6.40
2018-08-30T10:36:12.365Z,7.00
2018-08-30T10:37:12.344Z,7.00
2018-08-30T10:38:12.331Z,7.90
2018-08-30T10:39:17.213Z,4.70
2018-08-30T10:40:12.727Z,3.90
2018-08-30T10:41:12.297Z,3.90
2018-08-30T10:42:12.270Z,4.70
2018-08-30T10:43:13.302Z,7.30
2018-08-30T10:44:12.246Z,9.90
2018-08-30T10:45:13.926Z,13.20
2018-08-30T10:46:12.272Z,8.70
2018-08-30T10:47:12.225Z,6.00
2018-08-30T10:48:12.229Z,12.60
2018-08-30T10:49:12.200Z,9.40
2018-08-30T10:50:12.221Z,8.30
2018-08-30T10:51:12.238Z,9.20
2018-08-30T10:52:12.286Z,7.30
2018-08-30T10:53:19.051Z,5.80
2018-08-30T10:54:12.144Z,4.30
2018-08-30T10:56:24.769Z,6.60
2018-08-30T10:57:32.090Z,6.20
2018-08-30T10:58:21.023Z,4.50
2018-08-30T10:59:20.932Z,4.20
2018-08-30T11:00:21.053Z,5.20
2018-08-30T11:01:20.904Z,5.90
2018-08-30T11:02:20.890Z,5.20
2018-08-30T11:03:21.560Z,6.00
2018-08-30T11:04:20.921Z,5.00
2018-08-30T11:05:20.866Z,6.60
2018-08-30T11:06:20.856Z,6.50
2018-08-30T11:07:20.835Z,8.40
2018-08-30T11:08:20.936Z,4.40
2018-08-30T11:09:21.307Z,4.60
2018-08-30T11:10:22.364Z,5.80
2018-08-30T11:11:21.540Z,3.60
2018-08-30T11:12:20.908Z,3.70
2018-08-30T11:13:21.018Z,3.80
2018-08-30T11:14:20.953Z,4.80
2018-08-30T11:15:20.783Z,3.90
2018-08-30T11:16:20.790Z,3.00
2018-08-30T11:17:20.843Z,4.60
2018-08-30T11:18:21.073Z,3.60
2018-08-30T11:19:20.763Z,4.40
2018-08-30T11:20:20.873Z,3.70
2018-08-30T11:21:20.814Z,4.50
2018-08-30T11:22:21.637Z,3.90
2018-08-30T11:23:21.676Z,4.70
2018-08-30T11:24:20.671Z,6.70
2018-08-30T11:25:20.644Z,6.20
2018-08-30T11:26:20.700Z,5.50
2018-08-30T11:27:20.626Z,5.30
2018-08-30T11:28:20.821Z,5.10
2018-08-30T11:29:22.366Z,6.30
2018-08-30T11:30:20.675Z,3.60
2018-08-30T11:31:34.856Z,9.20
2018-08-30T11:32:20.584Z,3.80
2018-08-30T11:33:20.579Z,4.00
2018-08-30T11:34:20.547Z,3.60
2018-08-30T11:35:20.668Z,5.40
2018-08-30T11:36:20.570Z,4.80
2018-08-30T11:37:20.594Z,3.20
2018-08-30T11:38:20.559Z,4.10
2018-08-30T11:39:20.498Z,4.20
2018-08-30T11:40:25.394Z,4.90
2018-08-30T11:41:20.486Z,5.10
2018-08-30T11:42:20.559Z,4.10
2018-08-30T11:43:20.811Z,5.60
2018-08-30T11:44:20.486Z,4.10
2018-08-30T11:45:21.367Z,3.80
2018-08-30T11:46:20.440Z,4.30
2018-08-30T11:47:20.509Z,6.70
2018-08-30T11:48:20.409Z,4.90
2018-08-30T11:49:20.378Z,4.00
2018-08-30T11:50:20.367Z,4.10
2018-08-30T11:51:20.476Z,4.50
2018-08-30T11:52:20.476Z,5.60
2018-08-30T11:53:20.760Z,3.50
2018-08-30T11:54:20.419Z,9.00
2018-08-30T11:55:20.321Z,5.60
2018-08-30T11:56:20.364Z,5.30
2018-08-30T11:57:20.878Z,3.10
2018-08-30T11:58:20.353Z,4.60
2018-08-30T11:59:20.279Z,4.30
2018-08-30T12:00:20.295Z,2.80
2018-08-30T12:01:20.264Z,6.20
2018-08-30T12:02:20.248Z,4.00
2018-08-30T12:03:20.238Z,5.10
2018-08-30T12:04:23.261Z,3.10
2018-08-30T12:05:20.272Z,5.50
2018-08-30T12:06:20.279Z,4.50
2018-08-30T12:07:20.232Z,5.00
2018-08-30T12:08:20.214Z,4.10
2018-08-30T12:09:20.181Z,4.80
2018-08-30T12:10:20.309Z,2.70
2018-08-30T12:11:20.224Z,3.50
2018-08-30T12:12:20.161Z,3.60
2018-08-30T12:13:20.162Z,4.00
2018-08-30T12:14:20.109Z,4.80
2018-08-30T12:15:20.134Z,3.40
2018-08-30T12:16:20.737Z,5.00
2018-08-30T12:17:20.085Z,8.00
2018-08-30T12:18:21.477Z,5.00
2018-08-30T12:19:20.073Z,5.50
2018-08-30T12:20:20.068Z,4.20
2018-08-30T12:21:20.186Z,4.10
2018-08-30T12:22:20.108Z,4.50
2018-08-30T12:23:20.018Z,4.50
2018-08-30T12:24:20.031Z,4.60
2018-08-30T12:25:20.008Z,2.30
2018-08-30T12:26:19.993Z,4.00
2018-08-30T12:27:20.027Z,5.50
2018-08-30T12:28:20.099Z,3.00
2018-08-30T12:29:19.977Z,6.10
2018-08-30T12:30:19.991Z,2.50
2018-08-30T12:31:20.072Z,4.10
2018-08-30T12:32:20.035Z,4.60
2018-08-30T12:33:20.173Z,4.80
2018-08-30T12:34:20.077Z,4.20
2018-08-30T12:35:20.035Z,2.20
2018-08-30T12:36:19.993Z,5.00
2018-08-30T12:39:02.963Z,3.50
2018-08-30T12:40:02.909Z,6.50
2018-08-30T12:41:07.457Z,3.00
2018-08-30T12:43:13.007Z,6.40
2018-08-30T12:44:12.751Z,5.00
2018-08-30T12:45:12.871Z,4.50
2018-08-30T12:46:12.506Z,4.10
2018-08-30T12:47:13.129Z,7.40
2018-08-30T12:48:12.454Z,5.40
2018-08-30T12:49:12.486Z,6.20
2018-08-30T12:50:12.557Z,4.40
2018-08-30T12:51:12.506Z,3.70
2018-08-30T12:52:13.078Z,6.20
2018-08-30T12:53:12.526Z,5.00
2018-08-30T12:54:12.511Z,4.60
2018-08-30T12:55:12.554Z,4.60
2018-08-30T12:56:12.542Z,3.70
2018-08-30T12:57:12.494Z,5.00
2018-08-30T12:58:12.811Z,2.80
2018-08-30T12:59:12.489Z,4.30
2018-08-30T13:00:12.551Z,6.70
2018-08-30T13:01:12.456Z,4.80
2018-08-30T13:02:12.484Z,4.40
2018-08-30T13:03:12.439Z,5.10
2018-08-30T13:04:12.453Z,2.90
2018-08-30T13:05:12.547Z,3.10
2018-08-30T13:06:12.640Z,3.30